sensor_id;sensor_type;location;lat;lon;timestamp;P1;durP1;ratioP1;P2;durP2;ratioP2
19940;SDS011;10132;50.864;5.176;2022-07-10T00:01:54;3.93;;;1.60;;
19940;SDS011;10132;50.864;5.176;2022-07-10T00:03:56;5.60;;;2.00;;
19940;SDS011;10132;50.864;5.176;2022-07-10T00:05:57;4.20;;;1.90;;
19940;SDS011;10132;50.864;5.176;2022-07-10T00:07:59;5.30;;;2.00;;
19940;SDS011;10132;50.864;5.176;2022-07-10T00:10:02;4.83;;;1.97;;
19940;SDS011;10132;50.864;5.176;2022-07-10T00:12:05;4.10;;;1.70;;
19940;SDS011;10132;50.864;5.176;2022-07-10T00:14:09;4.37;;;2.03;;
19940;SDS011;10132;50.864;5.176;2022-07-10T00:16:11;5.40;;;1.90;;
19940;SDS011;10132;50.864;5.176;2022-07-10T00:18:13;6.07;;;1.60;;
19940;SDS011;10132;50.864;5.176;2022-07-10T00:20:15;4.93;;;1.80;;
19940;SDS011;10132;50.864;5.176;2022-07-10T00:22:17;3.30;;;1.97;;
19940;SDS011;10132;50.864;5.176;2022-07-10T00:24:19;3.80;;;2.00;;
19940;SDS011;10132;50.864;5.176;2022-07-10T00:26:21;2.27;;;1.70;;
19940;SDS011;10132;50.864;5.176;2022-07-10T00:28:23;3.97;;;1.90;;
19940;SDS011;10132;50.864;5.176;2022-07-10T00:30:26;5.67;;;1.97;;
19940;SDS011;10132;50.864;5.176;2022-07-10T00:32:28;3.87;;;2.07;;
19940;SDS011;10132;50.864;5.176;2022-07-10T00:34:30;7.77;;;2.23;;
19940;SDS011;10132;50.864;5.176;2022-07-10T00:36:32;5.83;;;2.27;;
19940;SDS011;10132;50.864;5.176;2022-07-10T00:38:34;4.53;;;1.90;;
19940;SDS011;10132;50.864;5.176;2022-07-10T00:40:36;5.43;;;1.80;;
19940;SDS011;10132;50.864;5.176;2022-07-10T00:42:38;3.07;;;2.13;;
19940;SDS011;10132;50.864;5.176;2022-07-10T00:44:40;5.70;;;2.10;;
19940;SDS011;10132;50.864;5.176;2022-07-10T00:46:44;5.47;;;1.80;;
19940;SDS011;10132;50.864;5.176;2022-07-10T00:48:46;3.03;;;2.00;;
19940;SDS011;10132;50.864;5.176;2022-07-10T00:50:48;4.20;;;2.20;;
19940;SDS011;10132;50.864;5.176;2022-07-10T00:52:50;4.40;;;2.10;;
19940;SDS011;10132;50.864;5.176;2022-07-10T00:54:52;5.17;;;2.20;;
19940;SDS011;10132;50.864;5.176;2022-07-10T00:56:54;5.30;;;2.27;;
19940;SDS011;10132;50.864;5.176;2022-07-10T00:58:57;2.53;;;1.80;;
19940;SDS011;10132;50.864;5.176;2022-07-10T01:01:00;6.43;;;2.30;;
19940;SDS011;10132;50.864;5.176;2022-07-10T01:03:04;6.07;;;1.93;;
19940;SDS011;10132;50.864;5.176;2022-07-10T01:05:07;5.13;;;2.23;;
19940;SDS011;10132;50.864;5.176;2022-07-10T01:07:09;4.17;;;2.20;;
19940;SDS011;10132;50.864;5.176;2022-07-10T01:09:11;4.03;;;2.10;;
19940;SDS011;10132;50.864;5.176;2022-07-10T01:11:13;4.70;;;2.13;;
19940;SDS011;10132;50.864;5.176;2022-07-10T01:13:16;3.47;;;1.80;;
19940;SDS011;10132;50.864;5.176;2022-07-10T01:15:18;3.50;;;2.03;;
19940;SDS011;10132;50.864;5.176;2022-07-10T01:17:20;3.57;;;2.33;;
19940;SDS011;10132;50.864;5.176;2022-07-10T01:19:24;3.23;;;2.07;;
19940;SDS011;10132;50.864;5.176;2022-07-10T01:21:27;4.23;;;2.10;;
19940;SDS011;10132;50.864;5.176;2022-07-10T01:23:31;3.13;;;2.00;;
19940;SDS011;10132;50.864;5.176;2022-07-10T01:25:32;6.20;;;2.50;;
19940;SDS011;10132;50.864;5.176;2022-07-10T01:27:34;4.50;;;2.50;;
19940;SDS011;10132;50.864;5.176;2022-07-10T01:29:36;4.13;;;2.47;;
19940;SDS011;10132;50.864;5.176;2022-07-10T01:31:39;5.47;;;2.60;;
19940;SDS011;10132;50.864;5.176;2022-07-10T01:33:41;4.87;;;2.70;;
19940;SDS011;10132;50.864;5.176;2022-07-10T01:35:44;7.27;;;2.90;;
19940;SDS011;10132;50.864;5.176;2022-07-10T01:37:48;6.20;;;2.80;;
19940;SDS011;10132;50.864;5.176;2022-07-10T01:39:49;4.53;;;2.57;;
19940;SDS011;10132;50.864;5.176;2022-07-10T01:41:51;4.63;;;2.70;;
19940;SDS011;10132;50.864;5.176;2022-07-10T01:43:53;4.03;;;2.20;;
19940;SDS011;10132;50.864;5.176;2022-07-10T01:45:55;5.20;;;2.30;;
19940;SDS011;10132;50.864;5.176;2022-07-10T01:47:57;6.57;;;2.23;;
19940;SDS011;10132;50.864;5.176;2022-07-10T01:49:59;3.80;;;2.07;;
19940;SDS011;10132;50.864;5.176;2022-07-10T01:52:01;2.77;;;2.13;;
19940;SDS011;10132;50.864;5.176;2022-07-10T01:54:05;3.67;;;2.37;;
19940;SDS011;10132;50.864;5.176;2022-07-10T01:56:07;4.83;;;2.30;;
19940;SDS011;10132;50.864;5.176;2022-07-10T01:58:10;7.43;;;2.50;;
19940;SDS011;10132;50.864;5.176;2022-07-10T02:00:12;5.47;;;2.33;;
19940;SDS011;10132;50.864;5.176;2022-07-10T02:02:14;3.73;;;2.27;;
19940;SDS011;10132;50.864;5.176;2022-07-10T02:04:16;4.90;;;2.40;;
19940;SDS011;10132;50.864;5.176;2022-07-10T02:06:36;2.73;;;2.10;;
19940;SDS011;10132;50.864;5.176;2022-07-10T02:08:37;4.87;;;2.50;;
19940;SDS011;10132;50.864;5.176;2022-07-10T02:10:41;4.10;;;2.17;;
19940;SDS011;10132;50.864;5.176;2022-07-10T02:12:45;4.20;;;2.30;;
19940;SDS011;10132;50.864;5.176;2022-07-10T02:14:46;4.20;;;2.53;;
19940;SDS011;10132;50.864;5.176;2022-07-10T02:16:48;4.33;;;2.30;;
19940;SDS011;10132;50.864;5.176;2022-07-10T02:18:50;2.57;;;2.20;;
19940;SDS011;10132;50.864;5.176;2022-07-10T02:20:52;4.20;;;2.37;;
19940;SDS011;10132;50.864;5.176;2022-07-10T02:22:54;3.30;;;2.10;;
19940;SDS011;10132;50.864;5.176;2022-07-10T02:24:56;3.63;;;2.40;;
19940;SDS011;10132;50.864;5.176;2022-07-10T02:26:59;5.23;;;2.30;;
19940;SDS011;10132;50.864;5.176;2022-07-10T02:29:01;4.60;;;2.50;;
19940;SDS011;10132;50.864;5.176;2022-07-10T02:31:04;3.63;;;2.27;;
19940;SDS011;10132;50.864;5.176;2022-07-10T02:33:06;4.10;;;2.60;;
19940;SDS011;10132;50.864;5.176;2022-07-10T02:35:08;4.80;;;2.60;;
19940;SDS011;10132;50.864;5.176;2022-07-10T02:37:10;5.67;;;2.30;;
19940;SDS011;10132;50.864;5.176;2022-07-10T02:39:12;5.23;;;2.37;;
19940;SDS011;10132;50.864;5.176;2022-07-10T02:41:13;4.03;;;2.17;;
19940;SDS011;10132;50.864;5.176;2022-07-10T02:43:17;4.83;;;2.47;;
19940;SDS011;10132;50.864;5.176;2022-07-10T02:45:19;2.63;;;2.07;;
19940;SDS011;10132;50.864;5.176;2022-07-10T02:47:21;4.37;;;2.20;;
19940;SDS011;10132;50.864;5.176;2022-07-10T02:49:22;2.97;;;2.10;;
19940;SDS011;10132;50.864;5.176;2022-07-10T02:51:24;4.60;;;2.10;;
19940;SDS011;10132;50.864;5.176;2022-07-10T02:53:26;2.93;;;2.27;;
19940;SDS011;10132;50.864;5.176;2022-07-10T02:55:28;4.37;;;2.27;;
19940;SDS011;10132;50.864;5.176;2022-07-10T02:57:32;3.73;;;2.10;;
19940;SDS011;10132;50.864;5.176;2022-07-10T02:59:35;4.23;;;2.53;;
19940;SDS011;10132;50.864;5.176;2022-07-10T03:01:37;5.27;;;2.20;;
19940;SDS011;10132;50.864;5.176;2022-07-10T03:03:39;4.53;;;2.10;;
19940;SDS011;10132;50.864;5.176;2022-07-10T03:05:41;4.20;;;2.10;;
19940;SDS011;10132;50.864;5.176;2022-07-10T03:07:43;4.70;;;2.07;;
19940;SDS011;10132;50.864;5.176;2022-07-10T03:09:45;2.53;;;2.20;;
19940;SDS011;10132;50.864;5.176;2022-07-10T03:11:47;2.50;;;2.20;;
19940;SDS011;10132;50.864;5.176;2022-07-10T03:13:49;3.33;;;2.03;;
19940;SDS011;10132;50.864;5.176;2022-07-10T03:15:54;3.87;;;2.13;;
19940;SDS011;10132;50.864;5.176;2022-07-10T03:17:56;4.97;;;2.53;;
19940;SDS011;10132;50.864;5.176;2022-07-10T03:19:58;5.00;;;2.20;;
19940;SDS011;10132;50.864;5.176;2022-07-10T03:22:00;5.87;;;2.50;;
19940;SDS011;10132;50.864;5.176;2022-07-10T03:24:02;5.17;;;2.50;;
19940;SDS011;10132;50.864;5.176;2022-07-10T03:26:05;5.10;;;2.40;;
19940;SDS011;10132;50.864;5.176;2022-07-10T03:28:07;4.43;;;2.77;;
19940;SDS011;10132;50.864;5.176;2022-07-10T03:30:10;4.13;;;2.70;;
19940;SDS011;10132;50.864;5.176;2022-07-10T03:32:13;5.70;;;2.50;;
19940;SDS011;10132;50.864;5.176;2022-07-10T03:34:15;4.53;;;2.70;;
19940;SDS011;10132;50.864;5.176;2022-07-10T03:36:17;4.97;;;3.00;;
19940;SDS011;10132;50.864;5.176;2022-07-10T03:38:19;6.43;;;3.50;;
19940;SDS011;10132;50.864;5.176;2022-07-10T03:40:21;3.00;;;2.70;;
19940;SDS011;10132;50.864;5.176;2022-07-10T03:42:23;6.40;;;2.70;;
19940;SDS011;10132;50.864;5.176;2022-07-10T03:44:25;3.67;;;2.97;;
19940;SDS011;10132;50.864;5.176;2022-07-10T03:46:27;3.53;;;2.47;;
19940;SDS011;10132;50.864;5.176;2022-07-10T03:48:30;5.10;;;2.63;;
19940;SDS011;10132;50.864;5.176;2022-07-10T03:50:32;3.10;;;2.47;;
19940;SDS011;10132;50.864;5.176;2022-07-10T03:52:34;7.47;;;2.77;;
19940;SDS011;10132;50.864;5.176;2022-07-10T03:54:36;6.30;;;2.70;;
19940;SDS011;10132;50.864;5.176;2022-07-10T03:56:38;6.47;;;2.70;;
19940;SDS011;10132;50.864;5.176;2022-07-10T03:58:57;5.70;;;2.50;;
19940;SDS011;10132;50.864;5.176;2022-07-10T04:00:59;3.37;;;2.43;;
19940;SDS011;10132;50.864;5.176;2022-07-10T04:03:01;4.10;;;2.60;;
19940;SDS011;10132;50.864;5.176;2022-07-10T04:05:06;4.30;;;2.33;;
19940;SDS011;10132;50.864;5.176;2022-07-10T04:07:09;2.83;;;2.20;;
19940;SDS011;10132;50.864;5.176;2022-07-10T04:09:12;5.57;;;2.40;;
19940;SDS011;10132;50.864;5.176;2022-07-10T04:11:14;5.47;;;2.30;;
19940;SDS011;10132;50.864;5.176;2022-07-10T04:13:16;3.80;;;2.20;;
19940;SDS011;10132;50.864;5.176;2022-07-10T04:15:18;4.37;;;2.27;;
19940;SDS011;10132;50.864;5.176;2022-07-10T04:17:21;4.97;;;2.53;;
19940;SDS011;10132;50.864;5.176;2022-07-10T04:19:23;3.50;;;2.30;;
19940;SDS011;10132;50.864;5.176;2022-07-10T04:21:26;3.27;;;2.30;;
19940;SDS011;10132;50.864;5.176;2022-07-10T04:23:28;4.47;;;2.07;;
19940;SDS011;10132;50.864;5.176;2022-07-10T04:25:30;5.20;;;2.47;;
19940;SDS011;10132;50.864;5.176;2022-07-10T04:27:32;2.97;;;2.20;;
19940;SDS011;10132;50.864;5.176;2022-07-10T04:29:34;6.30;;;2.80;;
19940;SDS011;10132;50.864;5.176;2022-07-10T04:31:36;4.80;;;2.60;;
19940;SDS011;10132;50.864;5.176;2022-07-10T04:33:38;3.80;;;2.60;;
19940;SDS011;10132;50.864;5.176;2022-07-10T04:35:40;4.40;;;2.30;;
19940;SDS011;10132;50.864;5.176;2022-07-10T04:37:43;3.93;;;2.70;;
19940;SDS011;10132;50.864;5.176;2022-07-10T04:39:45;3.47;;;2.50;;
19940;SDS011;10132;50.864;5.176;2022-07-10T04:41:47;3.67;;;2.90;;
19940;SDS011;10132;50.864;5.176;2022-07-10T04:43:49;3.93;;;2.90;;
19940;SDS011;10132;50.864;5.176;2022-07-10T04:45:51;4.50;;;2.70;;
19940;SDS011;10132;50.864;5.176;2022-07-10T04:47:53;5.30;;;3.00;;
19940;SDS011;10132;50.864;5.176;2022-07-10T04:49:55;4.80;;;2.50;;
19940;SDS011;10132;50.864;5.176;2022-07-10T04:51:56;8.97;;;2.80;;
19940;SDS011;10132;50.864;5.176;2022-07-10T04:54:00;6.17;;;3.40;;
19940;SDS011;10132;50.864;5.176;2022-07-10T04:56:02;6.63;;;3.03;;
19940;SDS011;10132;50.864;5.176;2022-07-10T04:58:04;5.13;;;2.73;;
19940;SDS011;10132;50.864;5.176;2022-07-10T05:00:06;3.67;;;2.83;;
19940;SDS011;10132;50.864;5.176;2022-07-10T05:02:09;5.43;;;2.97;;
19940;SDS011;10132;50.864;5.176;2022-07-10T05:04:11;4.67;;;3.10;;
19940;SDS011;10132;50.864;5.176;2022-07-10T05:06:14;4.43;;;3.07;;
19940;SDS011;10132;50.864;5.176;2022-07-10T05:08:16;4.80;;;3.10;;
19940;SDS011;10132;50.864;5.176;2022-07-10T05:10:19;9.50;;;3.17;;
19940;SDS011;10132;50.864;5.176;2022-07-10T05:12:21;7.17;;;3.30;;
19940;SDS011;10132;50.864;5.176;2022-07-10T05:14:23;9.03;;;3.63;;
19940;SDS011;10132;50.864;5.176;2022-07-10T05:16:26;7.70;;;3.90;;
19940;SDS011;10132;50.864;5.176;2022-07-10T05:18:28;6.43;;;3.50;;
19940;SDS011;10132;50.864;5.176;2022-07-10T05:20:30;10.20;;;4.17;;
19940;SDS011;10132;50.864;5.176;2022-07-10T05:22:32;6.53;;;3.13;;
19940;SDS011;10132;50.864;5.176;2022-07-10T05:24:34;6.97;;;3.53;;
19940;SDS011;10132;50.864;5.176;2022-07-10T05:26:38;8.53;;;3.90;;
19940;SDS011;10132;50.864;5.176;2022-07-10T05:28:39;8.33;;;3.90;;
19940;SDS011;10132;50.864;5.176;2022-07-10T05:30:41;8.80;;;3.80;;
19940;SDS011;10132;50.864;5.176;2022-07-10T05:32:44;8.53;;;4.10;;
19940;SDS011;10132;50.864;5.176;2022-07-10T05:34:46;6.53;;;3.73;;
19940;SDS011;10132;50.864;5.176;2022-07-10T05:36:48;4.87;;;3.47;;
19940;SDS011;10132;50.864;5.176;2022-07-10T05:38:50;4.00;;;3.40;;
19940;SDS011;10132;50.864;5.176;2022-07-10T05:40:52;7.83;;;3.53;;
19940;SDS011;10132;50.864;5.176;2022-07-10T05:42:55;6.83;;;3.30;;
19940;SDS011;10132;50.864;5.176;2022-07-10T05:44:57;9.50;;;3.70;;
19940;SDS011;10132;50.864;5.176;2022-07-10T05:46:59;9.73;;;3.93;;
19940;SDS011;10132;50.864;5.176;2022-07-10T05:49:01;5.40;;;3.57;;
19940;SDS011;10132;50.864;5.176;2022-07-10T05:51:03;8.43;;;3.70;;
19940;SDS011;10132;50.864;5.176;2022-07-10T05:53:05;7.00;;;3.70;;
19940;SDS011;10132;50.864;5.176;2022-07-10T05:55:07;7.73;;;3.73;;
19940;SDS011;10132;50.864;5.176;2022-07-10T05:57:10;10.87;;;3.73;;
19940;SDS011;10132;50.864;5.176;2022-07-10T05:59:13;8.47;;;3.70;;
19940;SDS011;10132;50.864;5.176;2022-07-10T06:01:15;8.23;;;4.00;;
19940;SDS011;10132;50.864;5.176;2022-07-10T06:03:17;8.73;;;3.63;;
19940;SDS011;10132;50.864;5.176;2022-07-10T06:05:19;6.53;;;3.60;;
19940;SDS011;10132;50.864;5.176;2022-07-10T06:07:21;7.53;;;3.47;;
19940;SDS011;10132;50.864;5.176;2022-07-10T06:09:23;7.07;;;3.40;;
19940;SDS011;10132;50.864;5.176;2022-07-10T06:11:26;9.10;;;3.50;;
19940;SDS011;10132;50.864;5.176;2022-07-10T06:13:28;8.70;;;3.63;;
19940;SDS011;10132;50.864;5.176;2022-07-10T06:15:31;6.90;;;3.70;;
19940;SDS011;10132;50.864;5.176;2022-07-10T06:17:33;7.07;;;3.40;;
19940;SDS011;10132;50.864;5.176;2022-07-10T06:19:35;8.47;;;3.60;;
19940;SDS011;10132;50.864;5.176;2022-07-10T06:21:37;5.80;;;3.30;;
19940;SDS011;10132;50.864;5.176;2022-07-10T06:23:39;8.40;;;3.47;;
19940;SDS011;10132;50.864;5.176;2022-07-10T06:25:40;9.00;;;3.57;;
19940;SDS011;10132;50.864;5.176;2022-07-10T06:27:42;9.27;;;3.50;;
19940;SDS011;10132;50.864;5.176;2022-07-10T06:29:44;8.30;;;3.13;;
19940;SDS011;10132;50.864;5.176;2022-07-10T06:31:48;7.67;;;3.10;;
19940;SDS011;10132;50.864;5.176;2022-07-10T06:33:49;7.57;;;3.53;;
19940;SDS011;10132;50.864;5.176;2022-07-10T06:35:51;6.83;;;2.80;;
19940;SDS011;10132;50.864;5.176;2022-07-10T06:37:53;6.10;;;2.93;;
19940;SDS011;10132;50.864;5.176;2022-07-10T06:39:55;5.70;;;2.90;;
19940;SDS011;10132;50.864;5.176;2022-07-10T06:41:57;6.00;;;2.90;;
19940;SDS011;10132;50.864;5.176;2022-07-10T06:44:00;6.30;;;2.70;;
19940;SDS011;10132;50.864;5.176;2022-07-10T06:46:02;4.93;;;2.90;;
19940;SDS011;10132;50.864;5.176;2022-07-10T06:48:06;4.70;;;2.60;;
19940;SDS011;10132;50.864;5.176;2022-07-10T06:50:08;5.60;;;2.87;;
19940;SDS011;10132;50.864;5.176;2022-07-10T06:52:10;7.13;;;2.90;;
19940;SDS011;10132;50.864;5.176;2022-07-10T06:54:13;8.77;;;2.67;;
19940;SDS011;10132;50.864;5.176;2022-07-10T06:56:14;5.50;;;2.43;;
19940;SDS011;10132;50.864;5.176;2022-07-10T06:58:16;5.77;;;2.17;;
19940;SDS011;10132;50.864;5.176;2022-07-10T07:00:18;6.07;;;2.37;;
19940;SDS011;10132;50.864;5.176;2022-07-10T07:02:21;6.07;;;2.27;;
19940;SDS011;10132;50.864;5.176;2022-07-10T07:04:24;5.07;;;2.00;;
19940;SDS011;10132;50.864;5.176;2022-07-10T07:06:26;6.00;;;2.47;;
19940;SDS011;10132;50.864;5.176;2022-07-10T07:08:28;7.77;;;2.07;;
19940;SDS011;10132;50.864;5.176;2022-07-10T07:10:31;5.57;;;1.87;;
19940;SDS011;10132;50.864;5.176;2022-07-10T07:12:33;5.30;;;1.83;;
19940;SDS011;10132;50.864;5.176;2022-07-10T07:14:35;5.97;;;1.67;;
19940;SDS011;10132;50.864;5.176;2022-07-10T07:16:37;4.70;;;1.57;;
19940;SDS011;10132;50.864;5.176;2022-07-10T07:18:41;5.40;;;1.67;;
19940;SDS011;10132;50.864;5.176;2022-07-10T07:20:50;5.03;;;1.50;;
19940;SDS011;10132;50.864;5.176;2022-07-10T07:23:24;6.47;;;1.75;;
19940;SDS011;10132;50.864;5.176;2022-07-10T07:25:26;7.65;;;1.90;;
19940;SDS011;10132;50.864;5.176;2022-07-10T07:27:28;7.75;;;1.63;;
19940;SDS011;10132;50.864;5.176;2022-07-10T07:29:29;7.70;;;1.63;;
19940;SDS011;10132;50.864;5.176;2022-07-10T07:31:31;4.93;;;1.70;;
19940;SDS011;10132;50.864;5.176;2022-07-10T07:33:33;7.93;;;2.07;;
19940;SDS011;10132;50.864;5.176;2022-07-10T07:35:35;4.82;;;1.65;;
19940;SDS011;10132;50.864;5.176;2022-07-10T07:37:39;5.03;;;1.48;;
19940;SDS011;10132;50.864;5.176;2022-07-10T07:39:42;6.55;;;2.10;;
19940;SDS011;10132;50.864;5.176;2022-07-10T07:41:44;5.50;;;1.73;;
19940;SDS011;10132;50.864;5.176;2022-07-10T07:43:46;6.70;;;1.80;;
19940;SDS011;10132;50.864;5.176;2022-07-10T07:45:48;5.90;;;1.80;;
19940;SDS011;10132;50.864;5.176;2022-07-10T07:47:50;5.57;;;1.75;;
19940;SDS011;10132;50.864;5.176;2022-07-10T07:49:53;4.55;;;1.90;;
19940;SDS011;10132;50.864;5.176;2022-07-10T07:51:55;6.13;;;1.88;;
19940;SDS011;10132;50.864;5.176;2022-07-10T07:53:58;2.78;;;1.60;;
19940;SDS011;10132;50.864;5.176;2022-07-10T07:56:00;3.20;;;1.60;;
19940;SDS011;10132;50.864;5.176;2022-07-10T07:58:02;7.35;;;1.50;;
19940;SDS011;10132;50.864;5.176;2022-07-10T08:00:05;4.25;;;1.67;;
19940;SDS011;10132;50.864;5.176;2022-07-10T08:02:08;6.15;;;1.98;;
19940;SDS011;10132;50.864;5.176;2022-07-10T08:04:10;5.38;;;1.50;;
19940;SDS011;10132;50.864;5.176;2022-07-10T08:06:12;5.80;;;1.45;;
19940;SDS011;10132;50.864;5.176;2022-07-10T08:08:14;2.90;;;1.80;;
19940;SDS011;10132;50.864;5.176;2022-07-10T08:10:18;6.03;;;1.90;;
19940;SDS011;10132;50.864;5.176;2022-07-10T08:12:22;4.22;;;1.50;;
19940;SDS011;10132;50.864;5.176;2022-07-10T08:14:24;4.38;;;1.40;;
19940;SDS011;10132;50.864;5.176;2022-07-10T08:16:26;6.05;;;1.98;;
19940;SDS011;10132;50.864;5.176;2022-07-10T08:18:28;4.38;;;1.63;;
19940;SDS011;10132;50.864;5.176;2022-07-10T08:20:30;6.05;;;1.83;;
19940;SDS011;10132;50.864;5.176;2022-07-10T08:22:32;6.10;;;1.95;;
19940;SDS011;10132;50.864;5.176;2022-07-10T08:24:34;4.95;;;1.92;;
19940;SDS011;10132;50.864;5.176;2022-07-10T08:26:37;6.07;;;2.10;;
19940;SDS011;10132;50.864;5.176;2022-07-10T08:28:39;4.97;;;1.80;;
19940;SDS011;10132;50.864;5.176;2022-07-10T08:30:41;6.57;;;1.83;;
19940;SDS011;10132;50.864;5.176;2022-07-10T08:32:43;5.35;;;1.50;;
19940;SDS011;10132;50.864;5.176;2022-07-10T08:34:45;7.32;;;1.88;;
19940;SDS011;10132;50.864;5.176;2022-07-10T08:36:48;6.22;;;1.65;;
19940;SDS011;10132;50.864;5.176;2022-07-10T08:38:50;4.63;;;1.73;;
19940;SDS011;10132;50.864;5.176;2022-07-10T08:40:54;5.15;;;1.50;;
19940;SDS011;10132;50.864;5.176;2022-07-10T08:42:59;4.10;;;1.52;;
19940;SDS011;10132;50.864;5.176;2022-07-10T08:45:01;4.05;;;1.50;;
19940;SDS011;10132;50.864;5.176;2022-07-10T08:47:03;5.22;;;1.67;;
19940;SDS011;10132;50.864;5.176;2022-07-10T08:49:08;4.75;;;1.80;;
19940;SDS011;10132;50.864;5.176;2022-07-10T08:51:11;6.60;;;1.55;;
19940;SDS011;10132;50.864;5.176;2022-07-10T08:53:31;2.97;;;1.38;;
19940;SDS011;10132;50.864;5.176;2022-07-10T08:55:33;7.65;;;1.63;;
19940;SDS011;10132;50.864;5.176;2022-07-10T08:57:37;6.13;;;1.77;;
19940;SDS011;10132;50.864;5.176;2022-07-10T08:59:41;5.85;;;1.50;;
19940;SDS011;10132;50.864;5.176;2022-07-10T09:01:43;5.07;;;1.63;;
19940;SDS011;10132;50.864;5.176;2022-07-10T09:03:45;5.03;;;1.80;;
19940;SDS011;10132;50.864;5.176;2022-07-10T09:05:46;5.28;;;1.60;;
19940;SDS011;10132;50.864;5.176;2022-07-10T09:07:48;3.17;;;1.50;;
19940;SDS011;10132;50.864;5.176;2022-07-10T09:09:52;4.57;;;1.60;;
19940;SDS011;10132;50.864;5.176;2022-07-10T09:11:55;3.22;;;1.40;;
19940;SDS011;10132;50.864;5.176;2022-07-10T09:13:58;3.40;;;1.58;;
19940;SDS011;10132;50.864;5.176;2022-07-10T09:16:04;3.20;;;1.40;;
19940;SDS011;10132;50.864;5.176;2022-07-10T09:18:07;19.55;;;2.25;;
19940;SDS011;10132;50.864;5.176;2022-07-10T09:20:09;7.20;;;1.75;;
19940;SDS011;10132;50.864;5.176;2022-07-10T09:22:26;6.05;;;1.60;;
19940;SDS011;10132;50.864;5.176;2022-07-10T09:24:34;3.78;;;1.45;;
19940;SDS011;10132;50.864;5.176;2022-07-10T09:26:37;6.05;;;1.80;;
19940;SDS011;10132;50.864;5.176;2022-07-10T09:28:39;4.03;;;1.55;;
19940;SDS011;10132;50.864;5.176;2022-07-10T09:30:42;5.80;;;2.00;;
19940;SDS011;10132;50.864;5.176;2022-07-10T09:32:45;4.60;;;1.80;;
19940;SDS011;10132;50.864;5.176;2022-07-10T09:34:48;7.07;;;2.00;;
19940;SDS011;10132;50.864;5.176;2022-07-10T09:37:17;4.28;;;1.55;;
19940;SDS011;10132;50.864;5.176;2022-07-10T09:39:20;4.78;;;1.67;;
19940;SDS011;10132;50.864;5.176;2022-07-10T09:41:23;2.45;;;1.35;;
19940;SDS011;10132;50.864;5.176;2022-07-10T09:43:26;6.63;;;2.00;;
19940;SDS011;10132;50.864;5.176;2022-07-10T09:45:44;6.53;;;1.80;;
19940;SDS011;10132;50.864;5.176;2022-07-10T09:47:54;4.07;;;1.88;;
19940;SDS011;10132;50.864;5.176;2022-07-10T09:49:57;3.92;;;1.58;;
19940;SDS011;10132;50.864;5.176;2022-07-10T09:51:59;6.25;;;1.80;;
19940;SDS011;10132;50.864;5.176;2022-07-10T09:54:02;4.40;;;1.63;;
19940;SDS011;10132;50.864;5.176;2022-07-10T09:56:06;5.38;;;1.48;;
19940;SDS011;10132;50.864;5.176;2022-07-10T09:58:09;6.00;;;1.60;;
19940;SDS011;10132;50.864;5.176;2022-07-10T10:00:11;4.35;;;1.50;;
19940;SDS011;10132;50.864;5.176;2022-07-10T10:02:14;4.85;;;1.40;;
19940;SDS011;10132;50.864;5.176;2022-07-10T10:04:19;5.50;;;1.83;;
19940;SDS011;10132;50.864;5.176;2022-07-10T10:06:24;3.22;;;1.27;;
19940;SDS011;10132;50.864;5.176;2022-07-10T10:08:29;5.07;;;1.60;;
19940;SDS011;10132;50.864;5.176;2022-07-10T10:10:33;5.43;;;1.70;;
19940;SDS011;10132;50.864;5.176;2022-07-10T10:12:39;7.35;;;2.20;;
19940;SDS011;10132;50.864;5.176;2022-07-10T10:14:45;5.28;;;1.70;;
19940;SDS011;10132;50.864;5.176;2022-07-10T10:16:48;4.43;;;1.75;;
19940;SDS011;10132;50.864;5.176;2022-07-10T10:18:51;5.50;;;1.70;;
19940;SDS011;10132;50.864;5.176;2022-07-10T10:21:12;6.07;;;1.40;;
19940;SDS011;10132;50.864;5.176;2022-07-10T10:23:15;6.25;;;1.70;;
19940;SDS011;10132;50.864;5.176;2022-07-10T10:25:20;3.40;;;1.33;;
19940;SDS011;10132;50.864;5.176;2022-07-10T10:27:24;5.28;;;1.58;;
19940;SDS011;10132;50.864;5.176;2022-07-10T10:29:27;4.75;;;1.50;;
19940;SDS011;10132;50.864;5.176;2022-07-10T10:31:30;5.47;;;1.55;;
19940;SDS011;10132;50.864;5.176;2022-07-10T10:33:43;6.38;;;1.63;;
19940;SDS011;10132;50.864;5.176;2022-07-10T10:35:47;3.35;;;1.20;;
19940;SDS011;10132;50.864;5.176;2022-07-10T10:37:51;4.10;;;1.40;;
19940;SDS011;10132;50.864;5.176;2022-07-10T10:39:53;3.22;;;1.45;;
19940;SDS011;10132;50.864;5.176;2022-07-10T10:41:56;5.25;;;1.55;;
19940;SDS011;10132;50.864;5.176;2022-07-10T10:46:52;5.63;;;1.40;;
19940;SDS011;10132;50.864;5.176;2022-07-10T10:49:04;4.35;;;1.45;;
19940;SDS011;10132;50.864;5.176;2022-07-10T10:51:07;4.75;;;1.70;;
19940;SDS011;10132;50.864;5.176;2022-07-10T10:53:13;4.50;;;1.50;;
19940;SDS011;10132;50.864;5.176;2022-07-10T10:55:17;3.53;;;1.42;;
19940;SDS011;10132;50.864;5.176;2022-07-10T10:57:21;7.80;;;1.77;;
19940;SDS011;10132;50.864;5.176;2022-07-10T11:01:46;4.57;;;1.30;;
19940;SDS011;10132;50.864;5.176;2022-07-10T11:06:33;3.72;;;1.60;;
19940;SDS011;10132;50.864;5.176;2022-07-10T11:08:42;4.60;;;1.60;;
19940;SDS011;10132;50.864;5.176;2022-07-10T11:10:44;4.07;;;1.40;;
19940;SDS011;10132;50.864;5.176;2022-07-10T11:12:59;2.72;;;1.50;;
19940;SDS011;10132;50.864;5.176;2022-07-10T11:15:02;4.05;;;1.40;;
19940;SDS011;10132;50.864;5.176;2022-07-10T11:17:09;9.07;;;1.60;;
19940;SDS011;10132;50.864;5.176;2022-07-10T11:19:11;3.85;;;1.52;;
19940;SDS011;10132;50.864;5.176;2022-07-10T11:21:14;7.13;;;1.98;;
19940;SDS011;10132;50.864;5.176;2022-07-10T11:25:53;2.95;;;1.60;;
19940;SDS011;10132;50.864;5.176;2022-07-10T11:28:07;6.57;;;1.80;;
19940;SDS011;10132;50.864;5.176;2022-07-10T11:30:12;3.92;;;1.55;;
19940;SDS011;10132;50.864;5.176;2022-07-10T11:32:15;3.70;;;1.52;;
19940;SDS011;10132;50.864;5.176;2022-07-10T11:34:17;5.30;;;2.05;;
19940;SDS011;10132;50.864;5.176;2022-07-10T11:36:20;4.38;;;1.90;;
19940;SDS011;10132;50.864;5.176;2022-07-10T11:38:26;4.25;;;1.60;;
19940;SDS011;10132;50.864;5.176;2022-07-10T11:40:29;4.43;;;1.67;;
19940;SDS011;10132;50.864;5.176;2022-07-10T11:44:51;5.03;;;1.60;;
19940;SDS011;10132;50.864;5.176;2022-07-10T11:46:55;4.80;;;1.65;;
19940;SDS011;10132;50.864;5.176;2022-07-10T11:48:58;4.65;;;1.75;;
19940;SDS011;10132;50.864;5.176;2022-07-10T11:51:14;3.85;;;1.90;;
19940;SDS011;10132;50.864;5.176;2022-07-10T11:53:25;11.30;;;2.33;;
19940;SDS011;10132;50.864;5.176;2022-07-10T11:55:29;7.18;;;1.90;;
19940;SDS011;10132;50.864;5.176;2022-07-10T11:57:38;2.78;;;1.73;;
19940;SDS011;10132;50.864;5.176;2022-07-10T11:59:41;3.45;;;1.80;;
19940;SDS011;10132;50.864;5.176;2022-07-10T12:01:43;6.05;;;2.03;;
19940;SDS011;10132;50.864;5.176;2022-07-10T12:03:52;5.82;;;1.92;;
19940;SDS011;10132;50.864;5.176;2022-07-10T12:06:01;4.60;;;2.20;;
19940;SDS011;10132;50.864;5.176;2022-07-10T12:08:04;8.63;;;2.40;;
19940;SDS011;10132;50.864;5.176;2022-07-10T12:10:07;4.38;;;2.15;;
19940;SDS011;10132;50.864;5.176;2022-07-10T12:12:11;3.88;;;1.90;;
19940;SDS011;10132;50.864;5.176;2022-07-10T12:14:14;3.78;;;2.40;;
19940;SDS011;10132;50.864;5.176;2022-07-10T12:16:17;5.90;;;2.38;;
19940;SDS011;10132;50.864;5.176;2022-07-10T12:18:19;6.05;;;2.40;;
19940;SDS011;10132;50.864;5.176;2022-07-10T12:20:22;5.03;;;2.20;;
19940;SDS011;10132;50.864;5.176;2022-07-10T12:22:24;5.20;;;2.10;;
19940;SDS011;10132;50.864;5.176;2022-07-10T12:24:26;4.97;;;1.95;;
19940;SDS011;10132;50.864;5.176;2022-07-10T12:26:32;5.43;;;2.20;;
19940;SDS011;10132;50.864;5.176;2022-07-10T12:28:49;5.68;;;2.35;;
19940;SDS011;10132;50.864;5.176;2022-07-10T12:30:55;4.20;;;1.85;;
19940;SDS011;10132;50.864;5.176;2022-07-10T12:33:04;4.53;;;1.90;;
19940;SDS011;10132;50.864;5.176;2022-07-10T12:35:08;4.75;;;1.83;;
19940;SDS011;10132;50.864;5.176;2022-07-10T12:37:14;2.95;;;1.83;;